EHKD/DHR METAR and TAF weather

Enter ICAO airport designator
Station Type Date Time Source
EHKD METAR 2020/03/28 21:25 UTC NOAA

EHKD 282125Z AUTO 01014G29KT 320V040 9999 FEW019 SCT027 BKN039 04/00 Q1029 BLU


Station Type Date Time Source
EHKD Decoded METAR 2020/03/28 21:25 UTC NOAA

De Kooy, Netherlands (EHKD) 52-55N 004-47E 14M
Mar 28, 2020 - 05:25 PM EDT / 2020.03.28 2125 UTC
Wind: from the N (010 degrees) at 16 MPH (14 KT) gusting to 33 MPH (29 KT) (direction variable):0
Visibility: greater than 7 mile(s):0
Sky conditions: mostly cloudy
Temperature: 39 F (4 C)
Dew Point: 32 F (0 C)
Relative Humidity: 75%
Pressure (altimeter): 30.39 in. Hg (1029 hPa)
ob: EHKD 282125Z AUTO 01014G29KT 320V040 9999 FEW019 SCT027 BKN039 04/00 Q1029 BLU
cycle: 21

Station Type Date Time Source
EHKD TAF 2020/03/28 14:51 UTC NOAA

TAF TAF EHKD 281344Z 2814/2902 01018G30KT 9999 SCT022 SCT040 PROB30
TEMPO 2819/2902 7000 -SHRA FEW020CB SCT025

Example: see airport list